weather.gov     
National Weather Service

Terminal Aerodrome Forecast
NWS Homepage
This page is being discontinued on March 12, 2014.
The same data is available at this site. Please update your bookmarks.
Thank you, and we apologize for the inconvenience.
Please send an email to SR-SRH.Webmaster@noaa.gov with any concerns.


Current Version
Previous Version:    01  02  03  04  05  06  07  08  09  10  11  12  13  14  15  16  17  18  19  20  21  22  23  24  25  26  27  28  29  30  
   31  32  33  34  35  36  37  38  39  40  41  42  43  44  45  46  47  
[Printable]
608
FTUS43 KDLH 200500
TAFDLH
TAF
KDLH 200534Z 2006/2106 15006KT 4SM -FZDZSN BR OVC006
      TEMPO 2006/2009 2SM -SN BR OVC004
     FM200900 14007KT 2SM -FZDZSN BR SCT004 BKN009
      TEMPO 2010/2014 3/4SM -FZDZSN BR OVC004
     FM201600 16008KT 2SM -FZDZSN BR OVC007
     FM202000 17007KT 6SM -FZDZSN BR SCT009 OVC012
     FM210000 19007KT P6SM OVC017=


U.S. Dept. of Commerce
NOAA National Weather Service
1325 East West Highway
Silver Spring, MD 20910
E-mail: w-nws.webmaster@noaa.gov
Page last modified: May 16, 2007
NATIONAL WEATHER SERVICE: for Safety, for Work, for Fun - FOR LIFE